Aviation Digital Data Service (ADDS)

Output produced by TAFs form (0432 UTC 28 April 2017)
found at http://www.aviationweather.gov/adds/tafs/
 
KMDT 280327Z 2803/2824 15007KT P6SM VCSH SCT035 BKN090 
     FM280600 26007KT P6SM BKN035 
     FM281000 30006KT 4SM BR BKN250 
     FM281200 31008KT P6SM SCT250 
     FM281900 26006KT P6SM SCT250